Latest Weather Observations for Young

IDN60801

Issued at 4:22 pm EST Sunday 23 September 2018 (issued every 10 minutes, with the page automatically refreshed every 10 minutes)

About weather observations | Map of weather stations | Latest weather observations for NSW | Other Formats
Station Details ID: 073138 Name: YOUNG AIRPORT Lat: -34.25 Lon: 148.25 Height: 379.6 m
Data from the previous 72 hours. | See also: Recent months at Young
Date/Time
EST
Temp
°C
App
Temp
°C
Dew
Point
°C
Rel
Hum
%
Delta-T
°C
Wind Press
QNH
hPa
Press
MSL
hPa
Rain since
9am
mm
Dir  Spd
km/h
Gust
km/h
Spd
kts
Gust
kts
23/04:00pm 20.9 15.2 0.7 26 9.3 SW 20 28 11 15 1022.5 1022.7 0.0
23/03:30pm 21.4 15.7 0.6 25 9.6 WSW 20 33 11 18 1022.6 1022.8 0.0
23/03:00pm 22.1 16.8 1.7 26 9.6 WSW 19 35 10 19 1022.7 1022.9 0.0
23/02:30pm 21.8 16.2 1.5 26 9.6 SW 20 32 11 17 1022.9 1023.1 0.0
23/02:00pm 22.2 16.6 1.3 25 9.8 WSW 20 33 11 18 1023.5 1023.7 0.0
23/01:30pm 22.2 16.9 1.8 26 9.7 WSW 19 30 10 16 1023.8 1024.0 0.0
23/01:00pm 21.5 14.6 0.1 24 9.7 SW 26 35 14 19 1024.2 1024.4 0.0
23/12:30pm 20.7 15.6 3.0 31 8.5 SW 19 26 10 14 1024.7 1024.9 0.0
23/12:00pm 20.6 15.7 2.0 29 8.7 WSW 17 22 9 12 1025.1 1025.3 0.0
23/11:30am 20.2 15.5 3.4 33 8.1 SW 17 28 9 15 1025.3 1025.5 0.0
23/11:00am 19.5 15.0 4.0 36 7.5 SW 17 26 9 14 1025.7 1026.0 0.0
23/10:30am 19.8 16.1 4.3 36 7.6 WSW 13 22 7 12 1025.9 1026.1 0.0
23/10:00am 19.5 15.7 5.6 40 6.9 WSW 15 20 8 11 1026.0 1026.2 0.0
23/09:30am 18.1 15.7 5.3 43 6.3 W 7 13 4 7 1026.1 1026.3 0.0
23/09:00am 16.1 14.2 6.5 53 4.8 NNE 6 9 3 5 1026.1 1026.3 0.0
23/08:30am 13.9 13.2 7.0 63 3.4 CALM 0 4 0 2 1026.1 1026.3 0.0
23/08:00am 9.5 8.2 5.9 78 1.7 S 2 6 1 3 1026.1 1026.3 0.0
23/07:30am 6.6 4.4 5.1 90 0.7 SSE 6 6 3 3 1026.1 1026.3 0.0
23/07:00am 3.4 0.8 3.3 99 0.0 S 6 6 3 3 1026.0 1026.2 0.0
23/06:30am 0.7 -2.3 0.6 99 0.0 S 6 7 3 4 1025.9 1026.1 0.0
23/06:00am -0.3 -3.5 -0.4 99 0.0 SSW 6 7 3 4 1025.5 1025.8 0.0
23/05:30am 0.5 -2.6 0.4 99 0.0 SW 6 7 3 4 1025.3 1025.5 0.0
23/05:00am 0.7 -2.3 0.6 99 0.0 SSW 6 7 3 4 1025.1 1025.3 0.0
23/04:30am 0.2 -3.1 -0.1 98 0.1 S 7 11 4 6 1024.8 1025.0 0.0
23/04:00am 1.1 -2.1 1.0 99 0.0 SSW 7 9 4 5 1024.8 1025.0 0.0
23/03:30am 1.2 -1.9 1.1 99 0.0 SSW 7 9 4 5 1024.6 1024.8 0.0
23/03:00am 0.8 -2.2 0.5 98 0.1 SW 6 7 3 4 1024.8 1025.0 0.0
23/02:30am 1.0 -2.2 0.7 98 0.1 SSW 7 7 4 4 1025.1 1025.3 0.0
23/02:00am 1.5 -1.6 1.4 99 0.0 SSW 7 7 4 4 1025.4 1025.6 0.0
23/01:30am 1.4 -1.7 1.1 98 0.1 SSW 7 9 4 5 1025.5 1025.8 0.0
23/01:00am 1.6 -1.5 1.2 97 0.2 S 7 9 4 5 1025.7 1026.0 0.0
23/12:30am 1.6 -1.4 0.9 95 0.3 SSW 6 7 3 4 1026.2 1026.4 0.0
23/12:00am 1.8 -1.2 1.1 95 0.3 SSW 6 7 3 4 1026.2 1026.4 0.0
 
Date/Time
EST
Temp
°C
App
Temp
°C
Dew
Point
°C
Rel
Hum
%
Delta-T
°C
Wind Press
QNH
hPa
Press
MSL
hPa
Rain since
9am
mm
Dir  Spd
km/h
Gust
km/h
Spd
kts
Gust
kts
22/11:30pm 2.3 -0.8 1.6 95 0.3 SW 7 9 4 5 1026.2 1026.4 0.0
22/11:00pm 2.8 0.0 1.8 93 0.4 SSW 6 7 3 4 1026.4 1026.6 0.0
22/10:30pm 2.9 -0.2 1.3 89 0.6 S 7 9 4 5 1026.3 1026.5 0.0
22/10:00pm 4.2 1.4 3.0 92 0.5 S 7 9 4 5 1026.4 1026.6 0.0
22/09:30pm 3.4 0.6 1.9 90 0.6 SW 6 7 3 4 1026.3 1026.5 0.0
22/09:00pm 4.6 1.6 2.3 85 0.9 S 7 7 4 4 1026.3 1026.5 0.0
22/08:30pm 5.1 2.4 2.8 85 1.0 SSW 6 7 3 4 1026.2 1026.4 0.0
22/08:00pm 6.1 3.3 2.9 80 1.3 S 7 9 4 5 1026.1 1026.3 0.0
22/07:30pm 7.3 4.9 4.1 80 1.4 SSW 6 7 3 4 1025.7 1026.0 0.0
22/07:00pm 8.1 6.6 2.8 69 2.3 CALM 0 0 0 0 1025.4 1025.6 0.0
22/06:30pm 11.2 9.8 3.7 60 3.4 CALM 0 0 0 0 1025.3 1025.5 0.0
22/06:00pm 14.6 12.4 3.1 46 5.3 SW 4 7 2 4 1025.1 1025.3 0.0
22/05:30pm 17.4 13.7 2.2 36 7.0 SW 11 15 6 8 1025.0 1025.2 0.0
22/05:00pm 18.4 13.0 1.0 31 7.9 SW 19 26 10 14 1024.9 1025.1 0.0
22/04:30pm 18.8 13.6 2.6 34 7.6 SW 19 24 10 13 1024.7 1024.9 0.0
22/04:00pm 18.4 13.3 3.1 36 7.2 SW 19 28 10 15 1024.6 1024.8 0.0
22/03:30pm 18.7 14.0 3.3 36 7.3 SW 17 26 9 14 1024.7 1024.9 0.0
22/03:00pm 20.7 15.2 2.0 29 8.8 WSW 20 28 11 15 1024.8 1025.0 0.0
22/02:30pm 20.5 16.0 1.9 29 8.7 W 15 28 8 15 1025.0 1025.2 0.0
22/02:00pm 21.0 16.1 4.1 33 8.3 WSW 19 28 10 15 1025.2 1025.4 0.0
22/01:30pm 19.8 15.4 2.6 32 8.2 W 15 22 8 12 1025.6 1025.9 0.0
22/01:00pm 19.6 15.3 3.3 34 7.8 W 15 24 8 13 1026.2 1026.4 0.0
22/12:30pm 18.9 13.9 3.5 36 7.4 WSW 19 28 10 15 1026.6 1026.8 0.0
22/12:00pm 18.9 13.7 2.7 34 7.6 WSW 19 32 10 17 1026.9 1027.1 0.0
22/11:30am 19.4 14.7 3.2 34 7.7 WSW 17 26 9 14 1027.2 1027.4 0.0
22/11:00am 19.1 15.0 4.1 37 7.2 W 15 22 8 12 1027.3 1027.5 0.0
22/10:30am 18.3 14.2 4.5 40 6.7 NW 15 24 8 13 1027.5 1027.7 0.0
22/10:00am 17.3 14.6 5.6 46 5.7 NW 9 15 5 8 1027.8 1028.1 0.0
22/09:30am 16.1 13.9 6.3 52 4.9 N 7 9 4 5 1028.1 1028.4 0.0
22/09:00am 13.6 11.4 6.0 60 3.7 NNE 7 11 4 6 1028.1 1028.4 0.0
22/08:30am 9.3 8.0 6.2 81 1.5 S 2 7 1 4 1028.1 1028.4 0.0
22/08:00am 6.4 4.2 5.2 92 0.5 SSW 6 6 3 3 1028.0 1028.3 0.0
22/07:30am 5.0 2.6 4.1 94 0.4 S 6 7 3 4 1027.8 1028.1 0.0
22/07:00am 3.5 0.9 3.4 99 0.0 S 6 9 3 5 1027.5 1027.7 0.0
22/06:30am 1.7 -1.4 1.6 99 0.0 S 7 11 4 6 1027.3 1027.5 0.0
22/06:00am 0.9 -2.1 0.8 99 0.0 S 6 9 3 5 1027.1 1027.3 0.0
22/05:30am 0.9 -2.1 0.8 99 0.0 SSW 6 7 3 4 1027.0 1027.2 0.0
22/05:00am 0.8 -2.4 0.7 99 0.0 S 7 9 4 5 1026.9 1027.1 0.0
22/04:30am 1.1 -2.1 1.0 99 0.0 SSW 7 7 4 4 1026.7 1026.9 0.0
22/04:00am 0.7 -2.9 0.6 99 0.0 S 9 11 5 6 1026.4 1026.6 0.0
22/03:30am 1.5 -1.6 1.4 99 0.0 SSW 7 7 4 4 1026.4 1026.6 0.0
22/03:00am 1.2 -2.3 1.1 99 0.0 S 9 9 5 5 1026.3 1026.5 0.0
22/02:30am 1.1 -2.1 1.0 99 0.0 S 7 7 4 4 1026.6 1026.8 0.0
22/02:00am 0.6 -2.7 0.3 98 0.1 SSW 7 9 4 5 1026.7 1026.9 0.0
22/01:30am 0.8 -2.3 0.2 96 0.2 SSW 6 7 3 4 1026.8 1027.0 0.0
22/01:00am 1.0 -2.2 0.6 97 0.2 SW 7 7 4 4 1027.1 1027.3 0.0
22/12:30am 1.5 -1.6 1.1 97 0.2 S 7 9 4 5 1027.1 1027.3 0.0
22/12:00am 1.1 -2.0 0.2 94 0.3 SSW 6 9 3 5 1027.2 1027.4 0.0
 
Date/Time
EST
Temp
°C
App
Temp
°C
Dew
Point
°C
Rel
Hum
%
Delta-T
°C
Wind Press
QNH
hPa
Press
MSL
hPa
Rain since
9am
mm
Dir  Spd
km/h
Gust
km/h
Spd
kts
Gust
kts
21/11:30pm 2.0 -1.0 1.1 94 0.3 SW 6 7 3 4 1027.2 1027.4 0.0
21/11:00pm 2.6 -0.4 1.7 94 0.4 S 7 9 4 5 1027.3 1027.5 0.0
21/10:30pm 2.9 -0.1 1.9 93 0.4 SSW 7 9 4 5 1027.4 1027.6 0.0
21/10:00pm 3.4 0.4 2.1 91 0.5 SSW 7 9 4 5 1027.3 1027.5 0.0
21/09:30pm 4.4 1.5 2.6 88 0.7 SSE 7 9 4 5 1027.5 1027.7 0.0
21/09:00pm 4.6 1.9 2.5 86 0.9 SSW 6 9 3 5 1027.4 1027.6 0.0
21/08:30pm 6.2 3.4 3.4 82 1.2 S 7 9 4 5 1027.4 1027.6 0.0
21/08:00pm 6.3 3.7 3.1 80 1.4 S 6 7 3 4 1027.1 1027.3 0.0
21/07:30pm 7.0 4.8 3.3 77 1.6 SW 4 7 2 4 1026.9 1027.1 0.0
21/07:00pm 9.2 6.8 4.2 71 2.2 WSW 6 7 3 4 1026.6 1026.8 0.0
21/06:30pm 11.0 9.3 4.0 62 3.2 SSW 2 7 1 4 1026.2 1026.4 0.0
21/06:00pm 14.1 11.5 4.1 51 4.6 WSW 7 9 4 5 1026.0 1026.2 0.0
21/05:30pm 17.0 13.5 3.7 41 6.3 SSW 11 13 6 7 1025.6 1025.9 0.0
21/05:00pm 18.0 14.0 2.7 36 7.1 SSW 13 20 7 11 1025.4 1025.6 0.0
21/04:30pm 18.4 14.0 2.7 35 7.4 SSW 15 20 8 11 1025.2 1025.4 0.0
21/04:00pm 18.9 14.9 3.1 35 7.5 SSW 13 19 7 10 1025.2 1025.4 0.0
21/03:30pm 18.4 13.5 2.3 34 7.5 SSW 17 24 9 13 1025.1 1025.3 0.0
21/03:00pm 18.8 13.9 2.2 33 7.7 WSW 17 24 9 13 1025.2 1025.4 0.0
21/02:30pm 18.5 14.1 2.8 35 7.4 SW 15 22 8 12 1025.5 1025.8 0.0
21/02:00pm 18.8 14.3 2.2 33 7.7 SW 15 26 8 14 1025.9 1026.1 0.0
21/01:30pm 17.6 13.1 2.4 36 7.1 SSW 15 26 8 14 1026.1 1026.3 0.0
21/01:00pm 17.0 14.0 1.8 36 6.9 SW 7 17 4 9 1026.4 1026.6 0.0
21/12:30pm 16.7 12.7 2.7 39 6.5 SW 13 20 7 11 1026.8 1027.0 0.0
21/12:00pm 16.6 12.3 3.3 41 6.2 SSW 15 20 8 11 1027.2 1027.4 0.0
21/11:30am 16.1 11.7 2.9 41 6.1 SW 15 26 8 14 1027.5 1027.7 0.0
21/11:00am 15.1 10.3 2.6 43 5.7 SW 17 26 9 14 1027.9 1028.2 0.0
21/10:30am 15.1 10.3 2.6 43 5.7 SSW 17 24 9 13 1028.0 1028.3 0.0
21/10:00am 14.7 10.3 2.9 45 5.4 SW 15 20 8 11 1027.9 1028.2 0.0
21/09:30am 13.8 11.0 3.3 49 4.8 SSW 7 11 4 6 1027.8 1028.1 0.0
21/09:00am 11.8 9.7 1.7 50 4.4 SE 2 9 1 5 1027.8 1028.1 0.0
21/08:30am 9.0 7.4 2.3 63 2.9 CALM 0 0 0 0 1027.7 1028.0 0.0
21/08:00am 5.9 3.8 1.8 75 1.7 S 2 6 1 3 1027.5 1027.7 0.0
21/07:30am 2.9 0.0 1.4 90 0.6 SSW 6 7 3 4 1027.3 1027.5 0.0
21/07:00am 0.4 -2.7 0.1 98 0.1 SSW 6 7 3 4 1027.1 1027.3 0.0
21/06:30am -2.2 -5.9 -2.6 97 0.0 S 7 7 4 4 1026.7 1026.9 0.0
21/06:00am -3.1 -6.9 -3.6 96 0.0 S 7 7 4 4 1026.3 1026.5 0.0
21/05:30am -2.8 -6.5 -3.2 97 0.0 S 7 9 4 5 1025.9 1026.1 0.0
21/05:00am -2.7 -6.4 -3.1 97 0.0 SSW 7 9 4 5 1025.5 1025.8 0.0
21/04:30am -2.5 -5.3 -3.0 96 0.1 SSW 2 7 1 4 1025.4 1025.6 0.0
21/04:00am -2.2 -4.5 -2.6 97 0.0 CALM 0 0 0 0 1025.1 1025.3 0.0
21/03:30am -2.0 -4.3 -2.3 98 0.0 CALM 0 0 0 0 1025.0 1025.2 0.0
21/03:00am -2.0 -4.3 -2.6 96 0.1 CALM 0 0 0 0 1025.0 1025.2 0.0
21/02:30am -1.8 -5.2 -2.4 96 0.1 SW 6 6 3 3 1025.1 1025.3 0.0
21/02:00am -1.2 -4.8 -2.2 93 0.3 S 7 9 4 5 1025.2 1025.4 0.0
21/01:30am -0.8 -4.3 -1.6 94 0.2 S 7 7 4 4 1025.5 1025.8 0.0
21/01:00am -1.1 -4.5 -2.1 93 0.3 S 6 7 3 4 1025.6 1025.9 0.0
21/12:30am -0.8 -4.4 -1.9 92 0.3 SSW 7 7 4 4 1025.4 1025.6 0.0
21/12:00am -0.5 -4.1 -1.8 91 0.4 SSW 7 9 4 5 1025.3 1025.5 0.0
 
Date/Time
EST
Temp
°C
App
Temp
°C
Dew
Point
°C
Rel
Hum
%
Delta-T
°C
Wind Press
QNH
hPa
Press
MSL
hPa
Rain since
9am
mm
Dir  Spd
km/h
Gust
km/h
Spd
kts
Gust
kts
20/11:30pm -0.2 -3.8 -1.8 89 0.6 S 7 9 4 5 1025.0 1025.2 0.0
20/11:00pm 0.0 -3.3 -1.4 90 0.5 S 6 9 3 5 1024.7 1024.9 0.0
20/10:30pm 0.9 -2.6 -1.0 87 0.7 S 7 9 4 5 1024.7 1024.9 0.0
20/10:00pm 1.7 -1.6 -0.2 87 0.7 S 7 9 4 5 1024.6 1024.8 0.0
20/09:30pm 2.4 -0.9 0.0 84 0.9 SSW 7 7 4 4 1024.3 1024.5 0.0
20/09:00pm 2.5 -0.6 -0.1 83 1.0 S 6 7 3 4 1024.2 1024.4 0.0
20/08:30pm 3.4 0.2 -0.2 77 1.4 S 6 9 3 5 1023.8 1024.0 0.0
20/08:00pm 4.1 2.2 0.3 76 1.5 CALM 0 0 0 0 1023.4 1023.6 0.0
20/07:30pm 5.4 3.4 0.0 68 2.1 CALM 0 0 0 0 1022.9 1023.1 0.0
20/07:00pm 6.9 4.1 -0.3 60 2.8 SW 4 7 2 4 1022.4 1022.6 0.0
20/06:30pm 9.0 5.7 0.2 54 3.6 SSW 7 9 4 5 1021.8 1022.0 0.0
20/06:00pm 12.2 7.7 -0.6 41 5.3 SW 13 17 7 9 1021.5 1021.7 0.0
20/05:30pm 14.1 8.8 -0.7 36 6.2 SW 17 22 9 12 1021.2 1021.4 0.0
20/05:00pm 15.0 9.1 -0.7 34 6.7 SSW 20 28 11 15 1020.9 1021.0 0.0
20/04:30pm 14.7 8.8 -1.0 34 6.6 SW 20 28 11 15 1020.6 1020.7 0.0

Other Formats:

Comma delimited format used in spreadsheet applications
http://www.bom.gov.au/fwo/IDN60801/IDN60801.94712.axf

JavaScript Object Notation format (JSON) in row-major order
http://www.bom.gov.au/fwo/IDN60801/IDN60801.94712.json